Terminal Aerodrome Forecast
Issued by NWS Riverton, WY

Home | Current Version | Previous Version | Text Only | Print | Product List | Glossary On
Versions: 1 2 3 4 5 6 7 8 9 10 11 12 13 14 15
000
FTUS45 KRIW 292300
TAFRIW
TAF
KRIW 292324Z 3000/3024 09006KT P6SM SCT035 BKN060
     FM300300 16006KT P6SM SCT050 BKN080
     FM300900 VRB05KT P6SM VCFG SCT005
     FM301400 VRB05KT P6SM FEW010 SCT040=

USA.gov is the U.S. government's official web portal to all federal, state and local government web resources and services.